Time;durP1;ratioP1;P1;durP2;ratioP2;P2;SDS_P1;SDS_P2;PMS_P1;PMS_P2;Temp;Humidity;BMP_temperature;BMP_pressure;BME280_temperature;BME280_humidity;BME280_pressure;Samples;Min_cycle;Max_cycle;Signal;HPM_P1;HPM_P2
2023/08/21 00:00:39;;;;;;;;;;;;;;;;;;6180372;28;19933;-70
2023/08/21 00:03:39;;;;;;;;;;;;;;;;;;6182073;28;19921;-71
2023/08/21 00:06:39;;;;;;;;;;;;;;;;;;6178295;28;19921;-70
2023/08/21 00:09:39;;;;;;;;;;;;;;;;;;6179394;28;19910;-70
2023/08/21 00:12:39;;;;;;;;;;;;;;;;;;6180966;28;19913;-77
2023/08/21 00:15:40;;;;;;;;;;;;;;;;;;6176666;28;19910;-71
2023/08/21 00:18:40;;;;;;;;;;;;;;;;;;6185312;28;19917;-71
2023/08/21 00:21:40;;;;;;;;;;;;;;;;;;6189116;28;19917;-71
2023/08/21 00:24:40;;;;;;;;;;;;;;;;;;6188306;28;20315;-70
2023/08/21 00:27:40;;;;;;;;;;;;;;;;;;6187641;28;19921;-71
2023/08/21 00:30:40;;;;;;;;;;;;;;;;;;6182806;28;19970;-70
2023/08/21 00:33:40;;;;;;;;;;;;;;;;;;6188246;28;19916;-71
2023/08/21 00:36:40;;;;;;;;;;;;;;;;;;6188976;28;19909;-69
2023/08/21 00:39:41;;;;;;;;;;;;;;;;;;6187223;28;20379;-70
2023/08/21 00:42:41;;;;;;;;;;;;;;;;;;6185432;28;20013;-70
2023/08/21 00:45:41;;;;;;;;;;;;;;;;;;6182282;28;19909;-71
2023/08/21 00:48:41;;;;;;;;;;;;;;;;;;6187253;28;19917;-71
2023/08/21 00:51:41;;;;;;;;;;;;;;;;;;6186832;28;19949;-71
2023/08/21 00:54:41;;;;;;;;;;;;;;;;;;6179319;28;20287;-71
2023/08/21 00:57:41;;;;;;;;;;;;;;;;;;6181581;28;19922;-70
2023/08/21 01:00:41;;;;;;;;;;;;;;;;;;6179644;28;19977;-70
2023/08/21 01:03:42;;;;;;;;;;;;;;;;;;6180202;28;19940;-71
2023/08/21 01:06:42;;;;;;;;;;;;;;;;;;6183913;28;20009;-71
2023/08/21 01:09:42;;;;;;;;;;;;;;;;;;6179073;28;20260;-71
2023/08/21 01:12:42;;;;;;;;;;;;;;;;;;6180998;28;20475;-71
2023/08/21 01:15:42;;;;;;;;;;;;;;;;;;6180277;28;20008;-71
2023/08/21 01:18:42;;;;;;;;;;;;;;;;;;6186199;28;19925;-71
2023/08/21 01:21:43;;;;;;;;;;;;;;;;;;6182755;28;19916;-71
2023/08/21 01:24:43;;;;;;;;;;;;;;;;;;6182436;28;19909;-71
2023/08/21 01:27:43;;;;;;;;;;;;;;;;;;6184211;28;19917;-70
2023/08/21 01:30:43;;;;;;;;;;;;;;;;;;6180599;28;20346;-70
2023/08/21 01:33:43;;;;;;;;;;;;;;;;;;6184137;28;19976;-70
2023/08/21 01:36:43;;;;;;;;;;;;;;;;;;6184497;28;19910;-70
2023/08/21 01:39:43;;;;;;;;;;;;;;;;;;6187083;28;19922;-70
2023/08/21 01:42:43;;;;;;;;;;;;;;;;;;6184407;28;19917;-70
2023/08/21 01:45:43;;;;;;;;;;;;;;;;;;6181421;28;19925;-70
2023/08/21 01:48:44;;;;;;;;;;;;;;;;;;6181643;28;19965;-72
2023/08/21 01:51:44;;;;;;;;;;;;;;;;;;6182885;28;19922;-70
2023/08/21 01:54:44;;;;;;;;;;;;;;;;;;6184417;28;20007;-71
2023/08/21 01:57:44;;;;;;;;;;;;;;;;;;6188033;28;19924;-71
2023/08/21 02:00:44;;;;;;;;;;;;;;;;;;6182421;28;20641;-71
2023/08/21 02:03:44;;;;;;;;;;;;;;;;;;6179527;28;19910;-70
2023/08/21 02:06:45;;;;;;;;;;;;;;;;;;6183303;28;19914;-70
2023/08/21 02:09:45;;;;;;;;;;;;;;;;;;6181769;28;19957;-70
2023/08/21 02:12:45;;;;;;;;;;;;;;;;;;6185335;28;20376;-71
2023/08/21 02:15:45;;;;;;;;;;;;;;;;;;6183310;28;19917;-71
2023/08/21 02:18:45;;;;;;;;;;;;;;;;;;6183346;28;19921;-71
2023/08/21 02:21:45;;;;;;;;;;;;;;;;;;6177490;28;20352;-72
2023/08/21 02:24:45;;;;;;;;;;;;;;;;;;6182998;28;20411;-69
2023/08/21 02:27:46;;;;;;;;;;;;;;;;;;6180820;28;20076;-69
2023/08/21 02:30:46;;;;;;;;;;;;;;;;;;6180093;28;20048;-70
2023/08/21 02:33:46;;;;;;;;;;;;;;;;;;6184414;28;19913;-70
2023/08/21 02:36:46;;;;;;;;;;;;;;;;;;6182818;28;20368;-70
2023/08/21 02:39:46;;;;;;;;;;;;;;;;;;6178229;28;19952;-70
2023/08/21 02:42:46;;;;;;;;;;;;;;;;;;6185528;28;20004;-69
2023/08/21 02:45:47;;;;;;;;;;;;;;;;;;6184944;28;20104;-69
2023/08/21 02:48:47;;;;;;;;;;;;;;;;;;6185863;28;19973;-69
2023/08/21 02:51:47;;;;;;;;;;;;;;;;;;6176035;28;19921;-74
2023/08/21 02:54:47;;;;;;;;;;;;;;;;;;6182046;28;19914;-70
2023/08/21 02:57:47;;;;;;;;;;;;;;;;;;6182383;28;19921;-69
2023/08/21 03:00:47;;;;;;;;;;;;;;;;;;6180405;28;19941;-70
2023/08/21 03:03:47;;;;;;;;;;;;;;;;;;6185023;28;19949;-71
2023/08/21 03:06:47;;;;;;;;;;;;;;;;;;6182123;28;20391;-71
2023/08/21 03:09:48;;;;;;;;;;;;;;;;;;6182761;28;19991;-70
2023/08/21 03:12:48;;;;;;;;;;;;;;;;;;6185782;28;19994;-70
2023/08/21 03:15:48;;;;;;;;;;;;;;;;;;6182443;28;19913;-70
2023/08/21 03:18:48;;;;;;;;;;;;;;;;;;6181635;28;20526;-71
2023/08/21 03:21:48;;;;;;;;;;;;;;;;;;6183673;28;19989;-69
2023/08/21 03:24:48;;;;;;;;;;;;;;;;;;6184280;28;20348;-70
2023/08/21 03:27:49;;;;;;;;;;;;;;;;;;6183349;28;19917;-70
2023/08/21 03:30:49;;;;;;;;;;;;;;;;;;6181569;28;19917;-71
2023/08/21 03:33:49;;;;;;;;;;;;;;;;;;6180024;28;19917;-75
2023/08/21 03:36:49;;;;;;;;;;;;;;;;;;6180927;28;20008;-70
2023/08/21 03:39:49;;;;;;;;;;;;;;;;;;6183066;28;19910;-70
2023/08/21 03:42:49;;;;;;;;;;;;;;;;;;6170693;28;20013;-71
2023/08/21 03:45:50;;;;;;;;;;;;;;;;;;6181567;28;20381;-71
2023/08/21 03:48:50;;;;;;;;;;;;;;;;;;6182904;28;20012;-69
2023/08/21 03:51:50;;;;;;;;;;;;;;;;;;6179720;28;20368;-70
2023/08/21 03:54:50;;;;;;;;;;;;;;;;;;6175030;28;19968;-70
2023/08/21 03:57:50;;;;;;;;;;;;;;;;;;6175762;28;19953;-70
2023/08/21 04:00:50;;;;;;;;;;;;;;;;;;6178957;28;20036;-70
2023/08/21 04:03:51;;;;;;;;;;;;;;;;;;6179901;28;20387;-70
2023/08/21 04:06:51;;;;;;;;;;;;;;;;;;6178237;28;19913;-70
2023/08/21 04:09:52;;;;;;;;;;;;;;;;;;6179723;28;21025;-70
2023/08/21 04:12:52;;;;;;;;;;;;;;;;;;6182231;28;19968;-70
2023/08/21 04:15:53;;;;;;;;;;;;;;;;;;6174996;28;19922;-75
2023/08/21 04:18:53;;;;;;;;;;;;;;;;;;6177406;28;19961;-70
2023/08/21 04:21:53;;;;;;;;;;;;;;;;;;6178091;28;19914;-65
2023/08/21 04:24:53;;;;;;;;;;;;;;;;;;6172779;28;19933;-65
2023/08/21 04:27:53;;;;;;;;;;;;;;;;;;6173959;28;19917;-65
2023/08/21 04:30:53;;;;;;;;;;;;;;;;;;6176318;28;19936;-65
2023/08/21 04:33:53;;;;;;;;;;;;;;;;;;6177074;28;19918;-66
2023/08/21 04:36:53;;;;;;;;;;;;;;;;;;6178523;28;19973;-65
2023/08/21 04:39:53;;;;;;;;;;;;;;;;;;6175742;28;19929;-65
2023/08/21 04:42:54;;;;;;;;;;;;;;;;;;6180148;28;19976;-64
2023/08/21 04:45:54;;;;;;;;;;;;;;;;;;6178903;28;20372;-64
2023/08/21 04:48:54;;;;;;;;;;;;;;;;;;6180849;28;21276;-64
2023/08/21 04:51:54;;;;;;;;;;;;;;;;;;6179700;28;19920;-64
2023/08/21 04:54:54;;;;;;;;;;;;;;;;;;6181232;28;19914;-64
2023/08/21 04:57:54;;;;;;;;;;;;;;;;;;6176986;28;19918;-64
2023/08/21 05:00:54;;;;;;;;;;;;;;;;;;6180626;28;19917;-64
2023/08/21 05:03:55;;;;;;;;;;;;;;;;;;6184573;28;19918;-64
2023/08/21 05:06:55;;;;;;;;;;;;;;;;;;6181784;28;19922;-65
2023/08/21 05:09:55;;;;;;;;;;;;;;;;;;6179158;28;19922;-64
2023/08/21 05:12:55;;;;;;;;;;;;;;;;;;6183004;28;20012;-65
2023/08/21 05:15:55;;;;;;;;;;;;;;;;;;6180721;28;19918;-64
2023/08/21 05:18:55;;;;;;;;;;;;;;;;;;6182948;28;20280;-64
2023/08/21 05:21:55;;;;;;;;;;;;;;;;;;6179246;28;20282;-64
2023/08/21 05:24:56;;;;;;;;;;;;;;;;;;6188708;28;19921;-65
2023/08/21 05:27:56;;;;;;;;;;;;;;;;;;6181141;28;19918;-65
2023/08/21 05:30:56;;;;;;;;;;;;;;;;;;6177824;28;19944;-65
2023/08/21 05:33:56;;;;;;;;;;;;;;;;;;6185183;28;19917;-67
2023/08/21 05:36:56;;;;;;;;;;;;;;;;;;6177958;28;20060;-66
2023/08/21 05:39:56;;;;;;;;;;;;;;;;;;6178213;28;19979;-66
2023/08/21 05:42:56;;;;;;;;;;;;;;;;;;6178365;28;19993;-67
2023/08/21 05:45:56;;;;;;;;;;;;;;;;;;6182664;28;20010;-67
2023/08/21 05:48:56;;;;;;;;;;;;;;;;;;6184097;28;20365;-66
2023/08/21 05:51:58;;;;;;;;;;;;;;;;;;6188148;28;20126;-65
2023/08/21 05:54:58;;;;;;;;;;;;;;;;;;6183241;28;19980;-71
2023/08/21 05:57:58;;;;;;;;;;;;;;;;;;6194464;28;20371;-70
2023/08/21 06:00:59;;;;;;;;;;;;;;;;;;6195636;28;19956;-73
2023/08/21 06:03:59;;;;;;;;;;;;;;;;;;6198802;28;19917;-70
2023/08/21 06:06:59;;;;;;;;;;;;;;;;;;6198081;28;19910;-71
2023/08/21 06:09:59;;;;;;;;;;;;;;;;;;6191210;28;19921;-68
2023/08/21 06:12:59;;;;;;;;;;;;;;;;;;6180809;28;20345;-72
2023/08/21 06:15:59;;;;;;;;;;;;;;;;;;6180931;28;19910;-70
2023/08/21 06:18:59;;;;;;;;;;;;;;;;;;6177713;28;19921;-74
2023/08/21 06:21:59;;;;;;;;;;;;;;;;;;6183788;28;19920;-74
2023/08/21 06:24:59;;;;;;;;;;;;;;;;;;6180144;28;19910;-75
2023/08/21 06:28:00;;;;;;;;;;;;;;;;;;6184182;28;20272;-72
2023/08/21 06:31:03;;;;;;;;;;;;;;;;;;6179646;28;19997;-70
2023/08/21 06:34:03;;;;;;;;;;;;;;;;;;6191687;28;19909;-73
2023/08/21 06:37:03;;;;;;;;;;;;;;;;;;6186684;28;19980;-74
2023/08/21 06:40:03;;;;;;;;;;;;;;;;;;6172221;28;19918;-74
2023/08/21 06:43:05;;;;;;;;;;;;;;;;;;6178235;28;20344;-66
2023/08/21 06:46:05;;;;;;;;;;;;;;;;;;6177338;28;19918;-68
2023/08/21 06:49:06;;;;;;;;;;;;;;;;;;6179349;28;20096;-75
2023/08/21 06:52:06;;;;;;;;;;;;;;;;;;6180016;28;19924;-66
2023/08/21 06:55:06;;;;;;;;;;;;;;;;;;6178251;28;20018;-70
2023/08/21 06:58:06;;;;;;;;;;;;;;;;;;6180726;28;19924;-67
2023/08/21 07:01:06;;;;;;;;;;;;;;;;;;6178158;28;19948;-67
2023/08/21 07:04:06;;;;;;;;;;;;;;;;;;6177722;28;19913;-66
2023/08/21 07:07:06;;;;;;;;;;;;;;;;;;6179348;28;20364;-66
2023/08/21 07:10:08;;;;;;;;;;;;;;;;;;6179178;28;19989;-66
2023/08/21 07:13:08;;;;;;;;;;;;;;;;;;6152063;28;20416;-67
2023/08/21 07:16:08;;;;;;;;;;;;;;;;;;6151318;28;19969;-67
2023/08/21 07:19:09;;;;;;;;;;;;;;;;;;6148028;28;19922;-66
2023/08/21 07:22:09;;;;;;;;;;;;;;;;;;6152422;28;19976;-66
2023/08/21 07:25:09;;;;;;;;;;;;;;;;;;6152075;28;19914;-65
2023/08/21 07:28:10;;;;;;;;;;;;;;;;;;6156859;28;20068;-67
2023/08/21 07:31:10;;;;;;;;;;;;;;;;;;6157916;28;19936;-65
2023/08/21 07:34:11;;;;;;;;;;;;;;;;;;6151442;28;20333;-63
2023/08/21 07:37:11;;;;;;;;;;;;;;;;;;6152032;28;19947;-72
2023/08/21 07:40:11;;;;;;;;;;;;;;;;;;6154041;28;20109;-64
2023/08/21 07:43:11;;;;;;;;;;;;;;;;;;6156375;28;19917;-64
2023/08/21 07:46:13;;;;;;;;;;;;;;;;;;6151778;28;20000;-66
2023/08/21 07:49:13;;;;;;;;;;;;;;;;;;6152919;28;19918;-67
2023/08/21 07:52:15;;;;;;;;;;;;;;;;;;6152881;28;19936;-78
2023/08/21 07:55:15;;;;;;;;;;;;;;;;;;6161842;28;20261;-71
2023/08/21 07:58:15;;;;;;;;;;;;;;;;;;6160932;28;19969;-73
2023/08/21 08:01:15;;;;;;;;;;;;;;;;;;6154369;28;19918;-80
2023/08/21 08:04:16;;;;;;;;;;;;;;;;;;6157757;28;21307;-79
2023/08/21 08:07:16;;;;;;;;;;;;;;;;;;6158476;28;20364;-77
2023/08/21 08:10:16;;;;;;;;;;;;;;;;;;6155629;28;20344;-85
2023/08/21 08:13:16;;;;;;;;;;;;;;;;;;6166429;28;20005;-72
2023/08/21 08:16:17;;;;;;;;;;;;;;;;;;6155673;28;19910;-79
2023/08/21 08:19:17;;;;;;;;;;;;;;;;;;6156816;28;20356;-79
2023/08/21 08:22:17;;;;;;;;;;;;;;;;;;6160449;28;19918;-86
2023/08/21 08:25:17;;;;;;;;;;;;;;;;;;6157501;28;20343;-75
2023/08/21 08:28:17;;;;;;;;;;;;;;;;;;6155682;28;19997;-78
2023/08/21 08:31:17;;;;;;;;;;;;;;;;;;6160648;28;20055;-81
2023/08/21 08:34:20;;;;;;;;;;;;;;;;;;6157593;28;19910;-82
2023/08/21 08:37:20;;;;;;;;;;;;;;;;;;6154756;28;19929;-74
2023/08/21 08:40:20;;;;;;;;;;;;;;;;;;6160944;28;19983;-83
2023/08/21 08:43:20;;;;;;;;;;;;;;;;;;6164391;28;19918;-83
2023/08/21 08:46:20;;;;;;;;;;;;;;;;;;6175408;28;19916;-84
2023/08/21 08:49:20;;;;;;;;;;;;;;;;;;6169084;28;19918;-77
2023/08/21 08:52:20;;;;;;;;;;;;;;;;;;6158411;28;19918;-79
2023/08/21 08:55:21;;;;;;;;;;;;;;;;;;6158844;28;19909;-76
2023/08/21 08:58:21;;;;;;;;;;;;;;;;;;6157454;28;20044;-69
2023/08/21 09:01:21;;;;;;;;;;;;;;;;;;6160740;28;19926;-74
2023/08/21 09:04:21;;;;;;;;;;;;;;;;;;6158097;28;20063;-71
2023/08/21 09:07:21;;;;;;;;;;;;;;;;;;6159226;28;19922;-70
2023/08/21 09:10:22;;;;;;;;;;;;;;;;;;6158665;28;20345;-68
2023/08/21 09:13:22;;;;;;;;;;;;;;;;;;6156946;28;20396;-68
2023/08/21 09:16:22;;;;;;;;;;;;;;;;;;6149015;28;19997;-69
2023/08/21 09:19:24;;;;;;;;;;;;;;;;;;6159704;28;19914;-69
2023/08/21 09:22:24;;;;;;;;;;;;;;;;;;6158341;28;19989;-69
2023/08/21 09:25:25;;;;;;;;;;;;;;;;;;6154248;28;19922;-69
2023/08/21 09:28:25;;;;;;;;;;;;;;;;;;6159112;28;20011;-68
2023/08/21 09:31:25;;;;;;;;;;;;;;;;;;6157373;28;19926;-76
2023/08/21 09:34:26;;;;;;;;;;;;;;;;;;6159433;28;19973;-72
2023/08/21 09:37:26;;;;;;;;;;;;;;;;;;6160341;28;20709;-87
2023/08/21 09:40:26;;;;;;;;;;;;;;;;;;6186238;28;19925;-84
2023/08/21 09:43:26;;;;;;;;;;;;;;;;;;6176738;28;20041;-73
2023/08/21 09:46:27;;;;;;;;;;;;;;;;;;6165787;28;19949;-78
2023/08/21 09:49:27;;;;;;;;;;;;;;;;;;6169531;28;20000;-77
2023/08/21 09:52:27;;;;;;;;;;;;;;;;;;6167261;28;19918;-85
2023/08/21 09:55:29;;;;;;;;;;;;;;;;;;6179919;28;20652;-86
2023/08/21 09:58:31;;;;;;;;;;;;;;;;;;6183158;28;19926;-84
2023/08/21 10:01:32;;;;;;;;;;;;;;;;;;6176668;28;19926;-85
2023/08/21 10:04:33;;;;;;;;;;;;;;;;;;6176286;28;19914;-77
2023/08/21 10:07:34;;;;;;;;;;;;;;;;;;6179050;28;20402;-80
2023/08/21 10:10:34;;;;;;;;;;;;;;;;;;6183232;28;19994;-80
2023/08/21 10:13:34;;;;;;;;;;;;;;;;;;6178854;28;19922;-79
2023/08/21 10:16:34;;;;;;;;;;;;;;;;;;6168078;28;19910;-79
2023/08/21 10:19:34;;;;;;;;;;;;;;;;;;6173540;28;19930;-78
2023/08/21 10:22:34;;;;;;;;;;;;;;;;;;6152790;28;19940;-75
2023/08/21 10:25:35;;;;;;;;;;;;;;;;;;6157322;28;19918;-87
2023/08/21 10:28:35;;;;;;;;;;;;;;;;;;6164108;28;19973;-80
2023/08/21 10:31:35;;;;;;;;;;;;;;;;;;6155320;28;19910;-82
2023/08/21 10:34:35;;;;;;;;;;;;;;;;;;6166416;28;19914;-83
2023/08/21 10:37:35;;;;;;;;;;;;;;;;;;6168763;28;19922;-85
2023/08/21 10:40:35;;;;;;;;;;;;;;;;;;6162605;28;19929;-83
2023/08/21 10:43:35;;;;;;;;;;;;;;;;;;6161873;28;19917;-79
2023/08/21 10:46:35;;;;;;;;;;;;;;;;;;6158123;28;20371;-76
2023/08/21 10:49:36;;;;;;;;;;;;;;;;;;6166599;28;20055;-84
2023/08/21 10:52:36;;;;;;;;;;;;;;;;;;6165208;28;20157;-80
2023/08/21 10:55:36;;;;;;;;;;;;;;;;;;6156555;28;21333;-80
2023/08/21 10:58:36;;;;;;;;;;;;;;;;;;6158210;28;19928;-77
2023/08/21 11:01:36;;;;;;;;;;;;;;;;;;6156068;28;19926;-82
2023/08/21 11:04:36;;;;;;;;;;;;;;;;;;6160098;28;19933;-85
2023/08/21 11:07:36;;;;;;;;;;;;;;;;;;6166485;28;20553;-94
2023/08/21 11:10:37;;;;;;;;;;;;;;;;;;6162871;28;19917;-84
2023/08/21 11:13:37;;;;;;;;;;;;;;;;;;6158050;28;21195;-78
2023/08/21 11:16:37;;;;;;;;;;;;;;;;;;6156401;28;19918;-82
2023/08/21 11:19:37;;;;;;;;;;;;;;;;;;6156907;28;19922;-83
2023/08/21 11:22:37;;;;;;;;;;;;;;;;;;6181276;28;20664;-87
2023/08/21 11:25:38;;;;;;;;;;;;;;;;;;6173865;28;19913;-85
2023/08/21 11:28:48;;;;;;;;;;;;;;;;;;6175371;28;19917;-87
2023/08/21 11:31:48;;;;;;;;;;;;;;;;;;6128093;28;20017;-91
2023/08/21 11:34:49;;;;;;;;;;;;;;;;;;6183580;28;19922;-85
2023/08/21 11:37:49;;;;;;;;;;;;;;;;;;6166636;28;19922;-86
2023/08/21 11:40:49;;;;;;;;;;;;;;;;;;6165565;28;19914;-87
2023/08/21 11:43:49;;;;;;;;;;;;;;;;;;6164418;28;19957;-86
2023/08/21 11:46:49;;;;;;;;;;;;;;;;;;6167822;28;20491;-88
2023/08/21 11:49:49;;;;;;;;;;;;;;;;;;6172105;28;20368;-89
2023/08/21 11:52:49;;;;;;;;;;;;;;;;;;6174209;28;19925;-91
2023/08/21 11:55:49;;;;;;;;;;;;;;;;;;6163011;28;19913;-89
2023/08/21 11:58:50;;;;;;;;;;;;;;;;;;6162284;28;20404;-78
2023/08/21 12:01:51;;;;;;;;;;;;;;;;;;6159670;28;19928;-89
2023/08/21 12:04:51;;;;;;;;;;;;;;;;;;6161218;28;19976;-84
2023/08/21 12:07:52;;;;;;;;;;;;;;;;;;6155690;28;19926;-75
2023/08/21 12:10:53;;;;;;;;;;;;;;;;;;6155723;28;20373;-73
2023/08/21 12:13:53;;;;;;;;;;;;;;;;;;6168190;28;19961;-83
2023/08/21 12:16:54;;;;;;;;;;;;;;;;;;6171572;28;19918;-78
2023/08/21 12:19:54;;;;;;;;;;;;;;;;;;6170842;28;19929;-81
2023/08/21 12:22:54;;;;;;;;;;;;;;;;;;6175881;28;19929;-83
2023/08/21 12:25:54;;;;;;;;;;;;;;;;;;6177954;28;19917;-73
2023/08/21 12:28:54;;;;;;;;;;;;;;;;;;6171137;28;19918;-74
2023/08/21 12:31:54;;;;;;;;;;;;;;;;;;6166067;28;19918;-81
2023/08/21 12:34:55;;;;;;;;;;;;;;;;;;6172332;28;19953;-76
2023/08/21 12:37:55;;;;;;;;;;;;;;;;;;6173720;28;19914;-80
2023/08/21 12:40:55;;;;;;;;;;;;;;;;;;6174298;28;19927;-79
2023/08/21 12:43:55;;;;;;;;;;;;;;;;;;6176629;28;19968;-78
2023/08/21 12:46:55;;;;;;;;;;;;;;;;;;6176113;28;19918;-75
2023/08/21 12:49:55;;;;;;;;;;;;;;;;;;6193406;28;20049;-81
2023/08/21 12:52:55;;;;;;;;;;;;;;;;;;6169433;28;19925;-83
2023/08/21 12:55:55;;;;;;;;;;;;;;;;;;6190261;28;20018;-83
2023/08/21 12:58:55;;;;;;;;;;;;;;;;;;6171376;28;19914;-73
2023/08/21 13:01:56;;;;;;;;;;;;;;;;;;6160150;28;19951;-72
2023/08/21 13:04:56;;;;;;;;;;;;;;;;;;6167571;28;19917;-75
2023/08/21 13:07:56;;;;;;;;;;;;;;;;;;6177733;28;19958;-86
2023/08/21 13:10:56;;;;;;;;;;;;;;;;;;6180830;28;20145;-86
2023/08/21 13:13:56;;;;;;;;;;;;;;;;;;6170512;28;20013;-86
2023/08/21 13:16:56;;;;;;;;;;;;;;;;;;6167178;28;19988;-79
2023/08/21 13:19:56;;;;;;;;;;;;;;;;;;6165360;28;20252;-82
2023/08/21 13:22:56;;;;;;;;;;;;;;;;;;6160449;28;19914;-76
2023/08/21 13:25:57;;;;;;;;;;;;;;;;;;6161417;28;21032;-81
2023/08/21 13:28:57;;;;;;;;;;;;;;;;;;6159430;28;19990;-82
2023/08/21 13:31:57;;;;;;;;;;;;;;;;;;6160799;28;19917;-80
2023/08/21 13:34:57;;;;;;;;;;;;;;;;;;6165354;28;19925;-80
2023/08/21 13:37:58;;;;;;;;;;;;;;;;;;6160818;28;19926;-77
2023/08/21 13:40:58;;;;;;;;;;;;;;;;;;5815512;28;9999911;-78
2023/08/21 13:43:58;;;;;;;;;;;;;;;;;;6168363;28;20299;-75
2023/08/21 13:46:58;;;;;;;;;;;;;;;;;;6155537;28;19914;-74
2023/08/21 13:49:58;;;;;;;;;;;;;;;;;;6155748;28;19936;-75
2023/08/21 13:52:59;;;;;;;;;;;;;;;;;;6164796;28;19960;-83
2023/08/21 13:56:00;;;;;;;;;;;;;;;;;;6161359;28;20302;-80
2023/08/21 13:59:00;;;;;;;;;;;;;;;;;;6153477;28;19929;-80
2023/08/21 14:02:00;;;;;;;;;;;;;;;;;;6159023;28;19901;-82
2023/08/21 14:05:00;;;;;;;;;;;;;;;;;;6163930;28;19921;-72
2023/08/21 14:08:01;;;;;;;;;;;;;;;;;;6172490;28;21221;-76
2023/08/21 14:11:01;;;;;;;;;;;;;;;;;;6173548;28;20021;-82
2023/08/21 14:14:01;;;;;;;;;;;;;;;;;;6170410;28;19914;-83
2023/08/21 14:17:01;;;;;;;;;;;;;;;;;;6177719;28;20595;-87
2023/08/21 14:20:02;;;;;;;;;;;;;;;;;;6161864;28;19941;-76
2023/08/21 14:23:02;;;;;;;;;;;;;;;;;;6163487;28;20043;-80
2023/08/21 14:26:02;;;;;;;;;;;;;;;;;;6173312;28;19918;-80
2023/08/21 14:29:02;;;;;;;;;;;;;;;;;;6182460;28;19917;-75
2023/08/21 14:32:02;;;;;;;;;;;;;;;;;;6175496;28;20012;-78
2023/08/21 14:35:03;;;;;;;;;;;;;;;;;;6175650;28;19921;-76
2023/08/21 14:38:03;;;;;;;;;;;;;;;;;;6165521;28;20709;-81
2023/08/21 14:41:03;;;;;;;;;;;;;;;;;;6166236;28;20122;-79
2023/08/21 14:44:04;;;;;;;;;;;;;;;;;;6175872;28;19928;-80
2023/08/21 14:47:04;;;;;;;;;;;;;;;;;;6171244;28;19918;-81
2023/08/21 14:50:04;;;;;;;;;;;;;;;;;;6173117;28;19988;-81
2023/08/21 14:53:04;;;;;;;;;;;;;;;;;;6170872;28;19924;-80
2023/08/21 14:56:05;;;;;;;;;;;;;;;;;;6171656;28;19992;-85
2023/08/21 14:59:05;;;;;;;;;;;;;;;;;;6162014;28;20440;-82
2023/08/21 15:02:05;;;;;;;;;;;;;;;;;;6156775;28;20493;-80
2023/08/21 15:05:05;;;;;;;;;;;;;;;;;;6155206;28;19922;-77
2023/08/21 15:08:06;;;;;;;;;;;;;;;;;;6155951;28;20353;-85
2023/08/21 15:11:06;;;;;;;;;;;;;;;;;;6158273;28;20286;-80
2023/08/21 15:14:06;;;;;;;;;;;;;;;;;;6158001;28;20377;-78
2023/08/21 15:17:06;;;;;;;;;;;;;;;;;;6154803;28;20331;-73
2023/08/21 15:20:06;;;;;;;;;;;;;;;;;;6159894;28;20001;-81
2023/08/21 15:23:07;;;;;;;;;;;;;;;;;;6158803;28;19979;-89
2023/08/21 15:26:07;;;;;;;;;;;;;;;;;;6157932;28;19917;-84
2023/08/21 15:29:07;;;;;;;;;;;;;;;;;;6166141;28;19922;-87
2023/08/21 15:32:07;;;;;;;;;;;;;;;;;;6158875;28;21395;-80
2023/08/21 15:35:08;;;;;;;;;;;;;;;;;;6155690;28;20257;-79
2023/08/21 15:38:08;;;;;;;;;;;;;;;;;;6151867;28;19921;-75
2023/08/21 15:41:08;;;;;;;;;;;;;;;;;;6150813;28;19929;-80
2023/08/21 15:44:09;;;;;;;;;;;;;;;;;;6159172;28;20510;-84
2023/08/21 15:47:10;;;;;;;;;;;;;;;;;;6161691;28;19928;-84
2023/08/21 15:50:10;;;;;;;;;;;;;;;;;;6165510;28;20471;-83
2023/08/21 15:53:10;;;;;;;;;;;;;;;;;;6162637;28;19968;-82
2023/08/21 15:56:10;;;;;;;;;;;;;;;;;;6158854;28;19918;-84
2023/08/21 15:59:10;;;;;;;;;;;;;;;;;;6157555;28;19980;-75
2023/08/21 16:02:10;;;;;;;;;;;;;;;;;;6155704;28;19961;-84
2023/08/21 16:05:10;;;;;;;;;;;;;;;;;;6157784;28;20265;-75
2023/08/21 16:08:11;;;;;;;;;;;;;;;;;;6163422;28;19921;-87
2023/08/21 16:11:11;;;;;;;;;;;;;;;;;;6156321;28;19918;-77
2023/08/21 16:14:12;;;;;;;;;;;;;;;;;;6156061;28;19933;-82
2023/08/21 16:17:13;;;;;;;;;;;;;;;;;;6160059;28;19924;-76
2023/08/21 16:20:15;;;;;;;;;;;;;;;;;;6156216;28;20053;-71
2023/08/21 16:23:15;;;;;;;;;;;;;;;;;;6162075;28;20128;-72
2023/08/21 16:26:15;;;;;;;;;;;;;;;;;;6158119;28;19917;-72
2023/08/21 16:29:17;;;;;;;;;;;;;;;;;;6159009;28;20012;-71
2023/08/21 16:32:17;;;;;;;;;;;;;;;;;;6159112;28;19921;-71
2023/08/21 16:35:17;;;;;;;;;;;;;;;;;;6159980;28;19953;-71
2023/08/21 16:38:17;;;;;;;;;;;;;;;;;;6160875;28;20813;-72
2023/08/21 16:41:19;;;;;;;;;;;;;;;;;;6160232;28;19913;-71
2023/08/21 16:44:20;;;;;;;;;;;;;;;;;;6162446;28;19918;-72
2023/08/21 16:47:21;;;;;;;;;;;;;;;;;;6157010;28;20000;-72
2023/08/21 16:50:21;;;;;;;;;;;;;;;;;;6159797;28;19993;-71
2023/08/21 16:53:21;;;;;;;;;;;;;;;;;;6159976;28;19941;-71
2023/08/21 16:56:21;;;;;;;;;;;;;;;;;;6159959;28;19918;-72
2023/08/21 16:59:21;;;;;;;;;;;;;;;;;;6190092;28;20032;-70
2023/08/21 17:02:21;;;;;;;;;;;;;;;;;;6185507;28;20376;-71
2023/08/21 17:05:21;;;;;;;;;;;;;;;;;;6189215;28;19913;-68
2023/08/21 17:08:21;;;;;;;;;;;;;;;;;;6188585;28;19925;-70
2023/08/21 17:11:22;;;;;;;;;;;;;;;;;;6181990;28;19960;-68
2023/08/21 17:14:22;;;;;;;;;;;;;;;;;;6183276;28;19913;-71
2023/08/21 17:17:22;;;;;;;;;;;;;;;;;;6183752;28;19980;-71
2023/08/21 17:20:25;;;;;;;;;;;;;;;;;;6198032;28;19914;-71
2023/08/21 17:23:26;;;;;;;;;;;;;;;;;;6171173;28;19917;-71
2023/08/21 17:26:26;;;;;;;;;;;;;;;;;;6190796;28;20297;-70
2023/08/21 17:29:26;;;;;;;;;;;;;;;;;;6187605;28;19957;-71
2023/08/21 17:32:26;;;;;;;;;;;;;;;;;;6187446;28;20172;-75
2023/08/21 17:35:27;;;;;;;;;;;;;;;;;;6191779;28;19963;-72
2023/08/21 17:38:27;;;;;;;;;;;;;;;;;;6182641;28;19919;-72
2023/08/21 17:41:28;;;;;;;;;;;;;;;;;;6186036;28;19914;-72
2023/08/21 17:44:28;;;;;;;;;;;;;;;;;;6191873;28;19960;-71
2023/08/21 17:47:29;;;;;;;;;;;;;;;;;;6188138;28;19917;-71
2023/08/21 17:50:29;;;;;;;;;;;;;;;;;;6196616;28;20031;-70
2023/08/21 17:53:29;;;;;;;;;;;;;;;;;;6189073;28;19915;-72
2023/08/21 17:56:30;;;;;;;;;;;;;;;;;;6188932;28;19952;-70
2023/08/21 17:59:30;;;;;;;;;;;;;;;;;;6182220;28;20130;-71
2023/08/21 18:02:30;;;;;;;;;;;;;;;;;;6175323;28;19910;-70
2023/08/21 18:05:30;;;;;;;;;;;;;;;;;;6186157;28;20009;-72
2023/08/21 18:08:31;;;;;;;;;;;;;;;;;;6182540;28;20320;-70
2023/08/21 18:11:31;;;;;;;;;;;;;;;;;;6185355;28;19916;-71
2023/08/21 18:14:31;;;;;;;;;;;;;;;;;;6174131;28;20361;-76
2023/08/21 18:17:31;;;;;;;;;;;;;;;;;;6185932;28;20099;-71
2023/08/21 18:20:31;;;;;;;;;;;;;;;;;;6185058;28;19917;-72
2023/08/21 18:23:31;;;;;;;;;;;;;;;;;;6190795;28;19910;-72
2023/08/21 18:26:31;;;;;;;;;;;;;;;;;;6182656;28;19953;-72
2023/08/21 18:29:31;;;;;;;;;;;;;;;;;;6180096;28;19914;-72
2023/08/21 18:32:32;;;;;;;;;;;;;;;;;;6183122;28;19955;-70
2023/08/21 18:35:32;;;;;;;;;;;;;;;;;;6178806;28;19917;-72
2023/08/21 18:38:32;;;;;;;;;;;;;;;;;;6183991;28;20361;-70
2023/08/21 18:41:33;;;;;;;;;;;;;;;;;;6183915;28;19949;-71
2023/08/21 18:44:34;;;;;;;;;;;;;;;;;;6186525;28;19975;-72
2023/08/21 18:47:34;;;;;;;;;;;;;;;;;;6184848;28;19917;-71
2023/08/21 18:50:35;;;;;;;;;;;;;;;;;;6184891;28;19909;-72
2023/08/21 18:53:35;;;;;;;;;;;;;;;;;;6171001;28;20335;-71
2023/08/21 18:56:35;;;;;;;;;;;;;;;;;;6183672;28;20284;-70
2023/08/21 18:59:35;;;;;;;;;;;;;;;;;;6185451;28;20364;-71
2023/08/21 19:02:35;;;;;;;;;;;;;;;;;;6170522;28;19964;-70
2023/08/21 19:05:36;;;;;;;;;;;;;;;;;;6187406;28;19918;-71
2023/08/21 19:08:36;;;;;;;;;;;;;;;;;;6180959;28;20316;-71
2023/08/21 19:11:36;;;;;;;;;;;;;;;;;;6186754;28;20443;-70
2023/08/21 19:14:37;;;;;;;;;;;;;;;;;;6184837;28;19965;-70
2023/08/21 19:17:37;;;;;;;;;;;;;;;;;;6187766;28;19928;-70
2023/08/21 19:20:37;;;;;;;;;;;;;;;;;;6186703;28;19917;-70
2023/08/21 19:23:37;;;;;;;;;;;;;;;;;;6185182;28;19972;-69
2023/08/21 19:26:37;;;;;;;;;;;;;;;;;;6186454;28;20288;-69
2023/08/21 19:29:38;;;;;;;;;;;;;;;;;;6190396;28;20019;-68
2023/08/21 19:32:38;;;;;;;;;;;;;;;;;;6189624;28;20365;-69
2023/08/21 19:35:38;;;;;;;;;;;;;;;;;;6189149;28;19920;-69
2023/08/21 19:38:38;;;;;;;;;;;;;;;;;;6186753;28;19949;-69
2023/08/21 19:41:40;;;;;;;;;;;;;;;;;;6185238;28;19913;-69
2023/08/21 19:44:42;;;;;;;;;;;;;;;;;;6185862;28;19921;-71
2023/08/21 19:47:42;;;;;;;;;;;;;;;;;;6171432;28;20463;-69
2023/08/21 19:50:42;;;;;;;;;;;;;;;;;;6185053;28;19976;-70
2023/08/21 19:53:42;;;;;;;;;;;;;;;;;;6189558;28;19961;-69
2023/08/21 19:56:42;;;;;;;;;;;;;;;;;;6183074;28;20032;-69
2023/08/21 19:59:43;;;;;;;;;;;;;;;;;;6183659;28;20383;-69
2023/08/21 20:02:43;;;;;;;;;;;;;;;;;;6185633;28;19917;-68
2023/08/21 20:05:43;;;;;;;;;;;;;;;;;;6188369;28;20361;-69
2023/08/21 20:08:43;;;;;;;;;;;;;;;;;;6189098;28;19914;-69
2023/08/21 20:11:43;;;;;;;;;;;;;;;;;;6181603;28;19913;-73
2023/08/21 20:14:44;;;;;;;;;;;;;;;;;;6183368;28;19959;-68
2023/08/21 20:17:44;;;;;;;;;;;;;;;;;;6185392;28;19925;-68
2023/08/21 20:20:45;;;;;;;;;;;;;;;;;;6176425;28;20326;-69
2023/08/21 20:23:45;;;;;;;;;;;;;;;;;;6177444;28;19949;-69
2023/08/21 20:26:45;;;;;;;;;;;;;;;;;;6180162;28;19960;-70
2023/08/21 20:29:45;;;;;;;;;;;;;;;;;;6176614;28;19914;-69